Scroll down
FLIGHT INFORMATION
United Airlines

UAL1535

At Arrival Gate

KLAX
 KIAH
DATE: 2022-01-03
GATE: 75B
GATE DEPARTURE: 20:07
TAKEOFF: 20:22
DATE: 2022-01-03
GATE:  -
LANDING: 22:58
GATE ARRIVAL: 23:14
FLIGHT DATA
Crew: 
Speed: 
458 kts
Altitude: 
37,016 ft
Stage Length: 
1,196.0 nm
Block Time: 
3 hrs
Flight Time: 
2.6 hrs
Fuel Used: 
16,029 lb
Cleared Route: KLAX DOCKR WEILR SHAEF PEVEE HOLTZ DOTSS WIILD BLCKD CSTWY CNERY BLH SALOM KOFFA TFD TOTEC ITEMM SSO ALIBY ELP PEQ DIESL STOCK FFUEL ARNNE PPUMP PPIPE MPORT DRLLR PTROL DOMNO SKLER CHUBS RW26R
TRACK DATA
50,000 ft 1,000 kts
AIRCRAFT INFO AND CUMULATIVE STATS
Aircraft Type: 
B739ERSSW
Registration: 
SELCAL: 
CLFG
MSN/LN: 
32835 / 2817
Operator: 
Total Flights: 
19
Total Block Time: 
43.9 hrs
Total Flight Time: 
37.7 hrs
Total Fuel Used: 
236,361 lb
DATALINK LOG | Newest first | Current as of: 2023-02-06 23:36:29
LABEL SEQUENCE CONTENT Dn/Up
QD303523:14 5.9▼ Dn
QC152122:58▼ Dn
UM2123353KIAH ATIS - IAH ATIS INFO A 1453Z. 02005KT 10SM CLR 03/M04 A3054 (THREE ZERO FIVE FOUR). ARRIVALS EXPECT ILS RY 26L, ILS RY 27, ILS OR RNAV Y RY 26R. SIMUL APPROACHES IN USE. DEPG RY 15L, RY 15R, RY 26R. NOTICE TO AIR MISSIONS. UNITED RAMP CONTROL IN EFFECT. BIRD ACTIVITY VICINITY ARPT. NOTAM ATIS IN USE ON FREQUENCY 126.225. ...ADVS YOU HAVE INFO A.▲ Up
DM793343 ATIS KIAH A▼ Dn
2U1755KIAH 031453Z 02005KT 10SM CLR 03/M04 A3054 RMK AO2 SLP343 T00281044 51016▲ Up
2S3342KIAH▼ Dn
QB385420:22▼ Dn
QA233920:07 22▼ Dn
2U0322KLAX 031253Z 06003KT 10SM CLR 07/M03 A3017 RMK AO2 SLP215 T00721028▲ Up
2S1935KLAX▼ Dn
Q01128[LINK ACK]▲ Up
Q01128[LINK TEST]▼ Dn
5U4014KIAH 031653Z 03005KT 10SM SKC 00/M06 A3050▲ Up
2U4011KIAH 031153Z 33004KT 10SM CLR 00/M06 A3050 RMK AO2 SLP327 70001 T00001061 10022 20000 53005▲ Up
2U4011KLAX 031153Z VRB03KT 10SM CLR 09/M03 A3017 RMK AO2 SLP216 T00891033 10128 20072 56011▲ Up
5S5614KIAH▼ Dn
2S5614KLAX KIAH▼ Dn
A35220CLEARED TO KIAH VIA DOTSS2 CNERY BLH J169 TFD J50 ELP J183 PEQ DIESL DRLLR5. SQUAWK 5615.▲ Up
UM2124716KLAX ATIS - LAX ATIS INFO A 1153Z. VRB03KT 10SM CLR 09/M03 A3017 (THREE ZERO ONE SEVEN) RMK AO2 SLP216 10128 20072 56011. INST APCHS AND RNAV RNP APCHS 6R, OR VCTR FOR VISUAL APCH WILL BE PROVIDED, OPP DIRECTION TFC DEPG RY 25. NOTICE TO AIR MISSIONS. RWY 2 5 LEFT 7 RIGHT CLSD. PAPI OTS 24L, 24R, VENTURA VOR OTS. HAZD WX INFO FOR LAX AREA AVBL FM FSS. BIRD ACTIVITY VICINITY ARPT. LAX ARVLS EXPECT RWY 6 LEFT OR RWY 6 RIGHT AFTER MIDNIGHT LOCAL. TWR FREQ FOR ALL RWYS IS 120.95. CD AND GC FREQ IS 121.75. INCLUDE YOUR CALL SIGN IN ALL READBACKS. ...ADVS YOU HAVE INFO A.▲ Up
DM794706 ATIS KLAX D▼ Dn
Q04504[LINK ACK]▲ Up
Q04504[LINK TEST]▼ Dn


AIRCRAFT HISTORY
FLIGHT DATE FLIGHT NO. ORIGIN DESTINATION CLEARED ROUTE BLOCK TIME FLIGHT TIME FUEL USED PILOT
2022-01-03UAL1535KLAX KIAH KLAX DOCKR WEILR SHAEF PEVEE HOLTZ DOTSS WIILD BLCKD CSTWY CNERY BLH SALOM KOFFA TFD TOTEC ITEMM SSO ALIBY ELP PEQ DIESL STOCK FFUEL ARNNE PPUMP PPIPE MPORT DRLLR PTROL DOMNO SKLER CHUBS RW26R3 hrs2.6 hrs16,029 lbNiklas Graefe
2021-12-28UAL403KDEN KLAX KDEN BRKEM WAKIR TUULO HLTON MTSUI BAYLR BOBBA TEHRU JASSE AREAF ESGEE DNERO SLLRS FLOJO SALYY GLESN ANJLL CAANN BOYEL CRCUS RW25L2.5 hrs2.2 hrs13,579 lbNiklas Graefe
2021-12-24UAL1999KSFO KDEN KSFO TYDYE TRUKN COSMC SYRAH JSICA LUDOH BUMMP SNOEE BOWLL ABASN KTOOO SSKII BGDEE CRAGG NARLE TELLR CELBI RW35L2.2 hrs1.8 hrs12,501 lbDan Downs
2021-09-24UAL123KDEN KSFO COORZ6 VOAXA Q136 RUMPS OAL INYOE DYAMD52.5 hrs2.1 hrs0 lbNiklas Graefe
2021-07-22UAL1658KLAS KDEN KLAS LEELN GLIAN BACCK ALOLY TTEEA GIDGT NICLE TUKRR BUMMP SNOEE BOWLL ABASN KTOOO SSKII BGDEE TLRID EPPIC RDDVL CLFFF SARAH RW071.9 hrs1.5 hrs10,290 lbNiklas Graefe
2021-07-15UAL299KDEN KLAS KDEN BRKEM WAKIR TUULO HLTON MTSUI BAYLR BOBBA TEHRU DVC TYEGR WARKA DUUGG HAANG AALAN CHOWW WOLPH TATUU KRLOZ PRINO RW26L1.8 hrs1.4 hrs9,654 lbNiklas Graefe
2021-07-11UAL1505KBZN KDEN KBZN JAPER BOBKT ZORKE TOOLS BOY TOFUU GNOLA HIPEE FOLSM BBOCO FLATI ELLDO TOTTT YESSS BAACK BABAA HIMOM RNOLD RW34L1.4 hrs1.2 hrs7,858 lbNiklas Graefe
2021-07-11UAL671KDEN KBZN KDEN MUGBE WAZEE LODOE RINKR HERDR TROTO YAMMI DDRTH BOY BZN SITRE RW301.6 hrs1.3 hrs9,145 lbNiklas Graefe
2021-07-07UAL2199KSNA KDEN KSNA STREL DOLLF FINZZ CAHIL ZOOMM SEBBY PLAYY ARCUS YELAH WYZEE BEALE NOOTN BETHL FREDD DICEE BUMMP SNOEE BOWLL ABASN KTOOO SSKII BGDEE TLRID ZATUT LOOOP JIBAT FUZZZ RW262.6 hrs2.3 hrs14,567 lbNiklas Graefe
2021-07-05UAL404KDEN KSNA KDEN TAVRN VONNN TEEBO CONNR WERNR ZAKRY BUGGG BAWER AHOWW ZAINY BLD NATEE FEYLA LRSON GITRR DUUNN CARZZ AASPN KADYN EROCK LUQAS DSNEE JWARD HUKEM RW20R2.3 hrs1.9 hrs12,136 lbNiklas Graefe
2021-07-04UAL1030KOMA KDEN KOMA OBH BRWRY DUNKL KOLSH PLZNR LAWGR PPINT BURRP YUPEE FFFAT DOGGG DRUMM RW35R1.5 hrs1.2 hrs8,609 lbNiklas Graefe
2021-05-02UAL519KELP KOMA KELP CME PNH MMB ICT PWE KOMA2.2 hrs2 hrs14,557 lbChemtrails
2020-12-15UAL51KSPS KELP KSPS SPS POSTE MEGGA VAYTU AJAHO ABI TYEES NOLAN HYMAN TAYOL BYPAS MAF YOGSU INK FEVOM CAVRN DILLI SFL EWM RW26R1.5 hrs1.3 hrs10,744 lbWILLIAM BRIDGES
2020-11-01UAL51KABQ KSPS KABQ DLSOL YUGLU CIANE MNZNO FATTT MOLVE TXO TURKI GANJA SPS RW33L1.4 hrs1.1 hrs9,164 lbWILLIAM BRIDGES
2020-09-06UAL1534KBZN KABQ 1.9 hrs1.6 hrs10,466 lbPete L.
2020-09-06UAL1534KDEN KBZN KDEN MUGBE WAZEE LODOE RINKR HERDR TROTO YAMMI DDRTH BOY LVM RW301.6 hrs1.3 hrs9,519 lbPete L.
2020-08-23UAL430KBOS KDEN KBOS NHANT HURBE STAYC SHAAN HYLND CAM PAYGE PUPPY GONZZ HOZIR DERLO KITOK TANKO FNT DBQ CAPPR JORDY TODDO OBH BRWRY DUNKL KOLSH PLZNR LAWGR PPINT TAPME GRRUB HOOPE RW17R4.1 hrs3.7 hrs22,121 lbPete L.
2020-08-22UAL6321KABQ KBOS KABQ TYILR ROWHO GRZZZ DNIDE FTI GCK SLN IRK JOT GIJ CRL CFHFC CFJGT COHOW SURLY JHW WAYLA VIEEW TYROD MEMMS LOXXE PONCT STOLI MNSTA SEETS DUBLE BASEZ JFUND AUTUM WINTA HRRIS ISLAY LWLND NOLEY RW22L4.4 hrs4.1 hrs25,044 lbPete L.
2020-08-18UAL5984KTPA KABQ KTPA FINKI BAYPO CTY SZW MEI TXK SPS TCC ACH TALLR COLTR YYLEE TACOH RW263.5 hrs3.2 hrs20,378 lbPete L.